Time;durP1;ratioP1;P1;durP2;ratioP2;P2;SDS_P1;SDS_P2;PMS_P1;PMS_P2;Temp;Humidity;BMP_temperature;BMP_pressure;BME280_temperature;BME280_humidity;BME280_pressure;Samples;Min_cycle;Max_cycle;Signal;HPM_P1;HPM_P2
2024/01/24 00:02:12;;;;;;;8.17;2.80;;;6.70;99.90;;;;;;5074593;28;20266;-78
2024/01/24 00:04:38;;;;;;;8.90;2.90;;;6.70;99.90;;;;;;5075959;28;20224;-79
2024/01/24 00:07:03;;;;;;;11.00;3.10;;;6.80;99.90;;;;;;5075445;28;20173;-81
2024/01/24 00:09:31;;;;;;;9.50;2.50;;;6.80;99.90;;;;;;5076034;28;20315;-79
2024/01/24 00:11:57;;;;;;;8.27;2.70;;;6.80;99.90;;;;;;5075177;28;20306;-78
2024/01/24 00:14:23;;;;;;;6.83;2.70;;;6.80;99.90;;;;;;5075660;28;20646;-78
2024/01/24 00:16:48;;;;;;;7.00;2.70;;;6.80;99.90;;;;;;5075900;28;20181;-78
2024/01/24 00:19:14;;;;;;;9.27;2.73;;;6.80;99.90;;;;;;5075135;28;20188;-79
2024/01/24 00:21:40;;;;;;;13.33;3.03;;;6.90;99.90;;;;;;5074909;28;20551;-79
2024/01/24 00:24:05;;;;;;;8.07;3.10;;;6.90;99.90;;;;;;5074956;28;20204;-79
2024/01/24 00:26:31;;;;;;;8.80;2.57;;;6.90;99.90;;;;;;5074810;28;20201;-79
2024/01/24 00:28:57;;;;;;;8.50;2.90;;;7.00;99.90;;;;;;5076392;28;20244;-78
2024/01/24 00:31:22;;;;;;;7.57;2.50;;;7.00;99.90;;;;;;5075915;28;20197;-79
2024/01/24 00:33:48;;;;;;;8.83;2.37;;;7.00;99.90;;;;;;5075954;28;20194;-78
2024/01/24 00:36:14;;;;;;;7.50;2.77;;;7.10;99.90;;;;;;5075821;28;20201;-78
2024/01/24 00:38:39;;;;;;;7.23;2.40;;;7.10;99.90;;;;;;5074524;28;20177;-79
2024/01/24 00:41:05;;;;;;;8.83;2.80;;;7.10;99.90;;;;;;5076015;28;20223;-78
2024/01/24 00:43:30;;;;;;;7.70;2.80;;;7.10;99.90;;;;;;5074217;28;20253;-81
2024/01/24 00:45:56;;;;;;;4.07;2.47;;;7.10;99.90;;;;;;5075570;28;20291;-78
2024/01/24 00:48:22;;;;;;;8.23;2.60;;;7.10;99.90;;;;;;5075832;28;20169;-78
2024/01/24 00:50:47;;;;;;;8.87;2.80;;;7.10;99.90;;;;;;5073929;28;20177;-78
2024/01/24 00:53:18;;;;;;;7.87;3.23;;;7.10;99.90;;;;;;5075459;28;20197;-80
2024/01/24 00:55:44;;;;;;;7.17;2.77;;;7.10;99.90;;;;;;5074029;28;20208;-78
2024/01/24 00:58:09;;;;;;;6.00;2.50;;;7.20;99.90;;;;;;5074214;28;20258;-79
2024/01/24 01:00:35;;;;;;;10.40;2.93;;;7.20;99.90;;;;;;5073048;28;20185;-79
2024/01/24 01:03:01;;;;;;;5.63;2.20;;;7.30;99.90;;;;;;5073921;28;20300;-78
2024/01/24 01:05:26;;;;;;;7.70;2.70;;;7.30;99.90;;;;;;5073290;28;20205;-78
2024/01/24 01:07:52;;;;;;;7.00;2.87;;;7.30;99.90;;;;;;5074580;28;20176;-78
2024/01/24 01:10:17;;;;;;;8.07;2.57;;;7.30;99.90;;;;;;5073696;28;20173;-79
2024/01/24 01:12:43;;;;;;;6.40;2.50;;;7.20;99.90;;;;;;5073925;28;20281;-79
2024/01/24 01:15:09;;;;;;;5.93;2.63;;;7.30;99.90;;;;;;5074776;28;20297;-78
2024/01/24 01:17:35;;;;;;;7.27;2.57;;;7.30;99.90;;;;;;5073835;28;20199;-79
2024/01/24 01:20:00;;;;;;;8.70;2.50;;;7.40;99.90;;;;;;5073389;28;20227;-78
2024/01/24 01:22:26;;;;;;;6.83;2.33;;;7.30;99.90;;;;;;5073272;28;20233;-78
2024/01/24 01:24:52;;;;;;;7.83;2.70;;;7.40;99.90;;;;;;5074147;28;20206;-81
2024/01/24 01:27:17;;;;;;;5.10;2.27;;;7.30;99.90;;;;;;5075634;28;20165;-79
2024/01/24 01:29:43;;;;;;;5.80;2.47;;;7.40;99.90;;;;;;5072931;28;20174;-78
2024/01/24 01:32:09;;;;;;;6.00;2.70;;;7.50;99.90;;;;;;5074150;28;20189;-78
2024/01/24 01:34:34;;;;;;;8.93;3.10;;;7.50;99.90;;;;;;5074309;28;20194;-79
2024/01/24 01:37:00;;;;;;;5.70;2.10;;;7.50;99.90;;;;;;5074464;28;20196;-78
2024/01/24 01:39:25;;;;;;;10.73;2.53;;;7.60;99.90;;;;;;5072651;28;20180;-78
2024/01/24 01:41:51;;;;;;;6.33;2.50;;;7.50;99.90;;;;;;5074423;28;20172;-79
2024/01/24 01:44:17;;;;;;;5.70;2.63;;;7.50;99.90;;;;;;5073719;28;20573;-78
2024/01/24 01:46:45;;;;;;;5.47;2.57;;;7.50;99.90;;;;;;5074711;28;20170;-79
2024/01/24 01:49:11;;;;;;;7.00;2.40;;;7.60;99.90;;;;;;5075273;28;20259;-78
2024/01/24 01:51:36;;;;;;;8.30;2.70;;;7.70;99.90;;;;;;5072467;28;20205;-80
2024/01/24 01:54:03;;;;;;;6.83;2.50;;;7.70;99.90;;;;;;5072724;28;20564;-79
2024/01/24 01:56:29;;;;;;;8.67;2.60;;;7.70;99.90;;;;;;5073298;28;20210;-81
2024/01/24 01:58:55;;;;;;;5.83;2.40;;;7.70;99.90;;;;;;5073933;28;20176;-78
2024/01/24 02:01:21;;;;;;;6.53;2.30;;;7.70;99.90;;;;;;5072308;28;20179;-78
2024/01/24 02:03:46;;;;;;;5.73;2.40;;;7.80;99.90;;;;;;5074210;28;20210;-79
2024/01/24 02:06:12;;;;;;;5.63;2.80;;;7.80;99.90;;;;;;5073275;28;20200;-78
2024/01/24 02:08:39;;;;;;;5.47;2.07;;;7.70;99.90;;;;;;5073092;28;20171;-79
2024/01/24 02:11:05;;;;;;;5.63;2.30;;;7.80;99.90;;;;;;5073900;28;20238;-81
2024/01/24 02:13:32;;;;;;;5.60;2.40;;;7.80;99.90;;;;;;5073065;28;20186;-81
2024/01/24 02:16:03;;;;;;;9.07;2.50;;;7.80;99.90;;;;;;5073364;28;20196;-81
2024/01/24 02:18:29;;;;;;;4.10;2.33;;;7.80;99.90;;;;;;5058108;28;20205;-81
2024/01/24 02:20:55;;;;;;;5.20;2.20;;;7.80;99.90;;;;;;5052788;28;20730;-79
2024/01/24 02:23:24;;;;;;;5.07;2.00;;;7.80;99.90;;;;;;5053015;28;20731;-78
2024/01/24 02:25:50;;;;;;;4.63;2.03;;;7.90;99.90;;;;;;5053615;28;20684;-80
2024/01/24 02:28:16;;;;;;;3.83;1.80;;;7.90;99.90;;;;;;5054156;28;20176;-81
2024/01/24 02:30:42;;;;;;;4.57;1.80;;;7.90;99.90;;;;;;5052693;28;20180;-80
2024/01/24 02:33:07;;;;;;;3.63;2.00;;;8.00;99.90;;;;;;5054141;28;20189;-79
2024/01/24 02:35:34;;;;;;;2.23;1.90;;;8.00;99.90;;;;;;5053329;28;20176;-78
2024/01/24 02:38:00;;;;;;;3.57;1.53;;;8.00;99.90;;;;;;5053755;28;20580;-80
2024/01/24 02:40:26;;;;;;;5.43;2.10;;;8.10;99.90;;;;;;5052956;28;20169;-79
2024/01/24 02:42:51;;;;;;;1.90;1.60;;;8.10;99.90;;;;;;5053687;28;20679;-78
2024/01/24 02:45:17;;;;;;;4.30;2.00;;;8.10;99.90;;;;;;5053402;28;20203;-79
2024/01/24 02:47:43;;;;;;;3.37;1.80;;;8.20;99.90;;;;;;5054139;28;20169;-79
2024/01/24 02:50:09;;;;;;;4.33;1.80;;;8.20;99.90;;;;;;5052928;28;20176;-79
2024/01/24 02:52:34;;;;;;;2.97;1.57;;;8.20;99.90;;;;;;5053207;28;20259;-79
2024/01/24 02:55:00;;;;;;;2.40;1.67;;;8.20;99.90;;;;;;5057705;28;20216;-78
2024/01/24 02:57:26;;;;;;;2.80;1.50;;;8.30;99.90;;;;;;5053283;28;20223;-78
2024/01/24 02:59:51;;;;;;;2.37;1.53;;;8.30;99.90;;;;;;5053001;28;20211;-78
2024/01/24 03:02:17;;;;;;;3.17;1.60;;;8.30;99.90;;;;;;5053050;28;20188;-78
2024/01/24 03:04:43;;;;;;;1.97;1.40;;;8.30;99.90;;;;;;5053979;28;20297;-79
2024/01/24 03:07:09;;;;;;;3.10;1.40;;;8.40;99.90;;;;;;5053040;28;20213;-77
2024/01/24 03:09:34;;;;;;;2.37;1.30;;;8.40;99.90;;;;;;5056507;28;20180;-81
2024/01/24 03:12:00;;;;;;;2.57;1.43;;;8.40;99.90;;;;;;5054622;28;20212;-79
2024/01/24 03:14:26;;;;;;;2.77;1.60;;;8.40;99.90;;;;;;5053727;28;20272;-79
2024/01/24 03:16:51;;;;;;;1.63;1.40;;;8.30;99.90;;;;;;5054901;28;20186;-79
2024/01/24 03:19:17;;;;;;;3.17;1.40;;;8.40;99.90;;;;;;5053351;28;20183;-79
2024/01/24 03:21:43;;;;;;;2.47;1.33;;;8.40;99.90;;;;;;5054435;28;20268;-78
2024/01/24 03:24:08;;;;;;;2.47;1.57;;;8.40;99.90;;;;;;5054042;28;20193;-79
2024/01/24 03:26:34;;;;;;;3.50;1.50;;;8.40;99.90;;;;;;5054594;28;20228;-79
2024/01/24 03:28:59;;;;;;;3.13;1.20;;;8.50;99.90;;;;;;5054162;28;20272;-79
2024/01/24 03:31:25;;;;;;;2.60;1.50;;;8.50;99.90;;;;;;5053480;28;20263;-80
2024/01/24 03:33:51;;;;;;;3.43;1.13;;;8.60;99.90;;;;;;5053849;28;20281;-78
2024/01/24 03:36:16;;;;;;;2.27;1.30;;;8.60;99.90;;;;;;5052948;28;20178;-79
2024/01/24 03:38:43;;;;;;;3.67;1.47;;;8.60;99.90;;;;;;5055748;28;20178;-79
2024/01/24 03:41:09;;;;;;;1.73;1.20;;;8.60;99.90;;;;;;5056360;28;20174;-79
2024/01/24 03:43:39;;;;;;;3.23;1.40;;;8.60;99.90;;;;;;5056619;28;20247;-79
2024/01/24 03:46:05;;;;;;;2.37;1.40;;;8.60;99.90;;;;;;5056187;28;20193;-79
2024/01/24 03:48:31;;;;;;;1.83;1.30;;;8.60;99.90;;;;;;5056130;28;20177;-78
2024/01/24 03:50:56;;;;;;;2.60;1.37;;;8.60;99.90;;;;;;5055505;28;20186;-78
2024/01/24 03:53:22;;;;;;;3.13;1.30;;;8.60;99.90;;;;;;5055620;28;20631;-79
2024/01/24 03:55:48;;;;;;;2.40;1.20;;;8.60;99.90;;;;;;5057705;28;20191;-80
2024/01/24 03:58:13;;;;;;;2.60;1.33;;;8.60;99.90;;;;;;5057170;28;20334;-78
2024/01/24 04:00:39;;;;;;;1.50;1.20;;;8.70;99.90;;;;;;5056667;28;20177;-79
2024/01/24 04:03:05;;;;;;;2.47;1.30;;;8.70;99.90;;;;;;5055692;28;20778;-79
2024/01/24 04:05:31;;;;;;;2.40;1.30;;;8.70;99.90;;;;;;5055714;28;20205;-80
2024/01/24 04:07:57;;;;;;;1.50;1.20;;;8.70;99.90;;;;;;5055507;28;20174;-78
2024/01/24 04:10:22;;;;;;;3.33;1.20;;;8.70;99.90;;;;;;5055024;28;20227;-79
2024/01/24 04:12:48;;;;;;;0.97;0.90;;;8.70;99.90;;;;;;5057269;28;20205;-78
2024/01/24 04:15:14;;;;;;;2.30;1.20;;;8.60;99.90;;;;;;5055788;28;20174;-78
2024/01/24 04:17:39;;;;;;;1.83;1.20;;;8.60;99.90;;;;;;5056531;28;20182;-78
2024/01/24 04:20:06;;;;;;;1.90;1.13;;;8.70;99.90;;;;;;5056676;28;20188;-79
2024/01/24 04:22:31;;;;;;;1.43;1.00;;;8.70;99.90;;;;;;5055368;28;20185;-78
2024/01/24 04:24:57;;;;;;;2.33;1.17;;;8.70;99.90;;;;;;5055659;28;20200;-79
2024/01/24 04:27:23;;;;;;;3.50;1.00;;;8.70;99.90;;;;;;5057115;28;20173;-78
2024/01/24 04:29:48;;;;;;;2.23;1.00;;;8.70;99.90;;;;;;5056318;28;20576;-78
2024/01/24 04:32:14;;;;;;;1.93;1.20;;;8.70;99.90;;;;;;5056789;28;20223;-79
2024/01/24 04:34:40;;;;;;;2.37;1.00;;;8.70;99.90;;;;;;5056531;28;20204;-78
2024/01/24 04:37:06;;;;;;;2.13;1.30;;;8.70;99.90;;;;;;5056782;28;20545;-79
2024/01/24 04:39:31;;;;;;;1.37;1.00;;;8.60;99.90;;;;;;5055534;28;20234;-80
2024/01/24 04:41:58;;;;;;;1.63;1.00;;;8.60;99.90;;;;;;5054691;28;20184;-78
2024/01/24 04:44:23;;;;;;;1.47;1.00;;;8.70;99.90;;;;;;5056243;28;20204;-80
2024/01/24 04:46:49;;;;;;;1.83;1.00;;;8.70;99.90;;;;;;5056395;28;20178;-78
2024/01/24 04:49:14;;;;;;;1.60;1.20;;;8.70;99.90;;;;;;5056658;28;20177;-78
2024/01/24 04:51:40;;;;;;;0.83;0.83;;;8.70;99.90;;;;;;5054927;28;20185;-78
2024/01/24 04:54:06;;;;;;;1.73;0.90;;;8.70;99.90;;;;;;5055380;28;20216;-79
2024/01/24 04:56:33;;;;;;;1.57;1.07;;;8.70;99.90;;;;;;5056760;28;20178;-80
2024/01/24 04:58:59;;;;;;;2.50;1.00;;;8.70;99.90;;;;;;5055141;28;20177;-79
2024/01/24 05:01:24;;;;;;;1.53;1.03;;;8.80;99.90;;;;;;5055236;28;20173;-79
2024/01/24 05:03:50;;;;;;;1.63;1.20;;;8.80;99.90;;;;;;5054438;28;20303;-79
2024/01/24 05:06:16;;;;;;;1.67;1.00;;;8.70;99.90;;;;;;5055334;28;20201;-78
2024/01/24 05:08:42;;;;;;;2.07;1.20;;;8.80;99.90;;;;;;5055678;28;20193;-79
2024/01/24 05:11:07;;;;;;;3.13;1.27;;;8.80;99.90;;;;;;5057493;28;20186;-79
2024/01/24 05:13:33;;;;;;;1.60;1.10;;;8.80;99.90;;;;;;5054996;28;20189;-79
2024/01/24 05:15:59;;;;;;;1.27;1.00;;;8.80;99.90;;;;;;5055714;28;20174;-79
2024/01/24 05:18:24;;;;;;;1.23;1.10;;;8.80;99.90;;;;;;5056574;28;20243;-79
2024/01/24 05:20:50;;;;;;;1.90;1.50;;;8.90;99.90;;;;;;5054420;28;20577;-78
2024/01/24 05:23:16;;;;;;;1.87;1.10;;;8.90;99.90;;;;;;5056371;28;20208;-79
2024/01/24 05:25:43;;;;;;;1.20;0.90;;;8.90;99.90;;;;;;5055748;28;20197;-78
2024/01/24 05:28:10;;;;;;;0.90;0.90;;;8.90;99.90;;;;;;5055609;28;20207;-78
2024/01/24 05:30:35;;;;;;;2.60;1.20;;;9.00;99.90;;;;;;5053872;28;20181;-78
2024/01/24 05:33:01;;;;;;;2.77;1.00;;;9.00;99.90;;;;;;5055990;28;20181;-79
2024/01/24 05:35:26;;;;;;;1.10;1.00;;;8.90;99.90;;;;;;5054656;28;20178;-79
2024/01/24 05:37:52;;;;;;;1.47;0.97;;;9.00;99.90;;;;;;5054918;28;20272;-78
2024/01/24 05:40:18;;;;;;;2.60;1.13;;;9.00;99.90;;;;;;5054910;28;20184;-79
2024/01/24 05:42:44;;;;;;;1.73;1.00;;;8.90;99.90;;;;;;5054611;28;20200;-79
2024/01/24 05:45:11;;;;;;;1.53;0.90;;;8.90;99.90;;;;;;5054651;28;20205;-79
2024/01/24 05:47:37;;;;;;;1.10;0.90;;;9.00;99.90;;;;;;5054796;28;20218;-78
2024/01/24 05:50:03;;;;;;;1.10;1.00;;;9.00;99.90;;;;;;5055842;28;20268;-78
2024/01/24 05:52:28;;;;;;;1.67;1.00;;;9.00;99.90;;;;;;5054982;28;20173;-79
2024/01/24 05:54:54;;;;;;;1.57;0.90;;;9.00;99.90;;;;;;5053981;28;20176;-79
2024/01/24 05:57:21;;;;;;;1.33;1.00;;;9.00;99.90;;;;;;5053638;28;20200;-78
2024/01/24 05:59:47;;;;;;;0.80;0.80;;;9.10;99.90;;;;;;5053492;28;20188;-79
2024/01/24 06:02:13;;;;;;;1.20;1.13;;;9.10;99.90;;;;;;5058747;28;20182;-80
2024/01/24 06:04:39;;;;;;;1.37;0.80;;;9.10;99.90;;;;;;5054757;28;20244;-79
2024/01/24 06:07:06;;;;;;;1.20;0.93;;;9.10;99.90;;;;;;5055404;28;20166;-77
2024/01/24 06:09:31;;;;;;;2.50;1.00;;;9.10;99.90;;;;;;5054426;28;20170;-78
2024/01/24 06:11:58;;;;;;;0.80;0.80;;;9.20;99.90;;;;;;5054200;28;20319;-78
2024/01/24 06:14:24;;;;;;;1.40;0.80;;;9.20;99.90;;;;;;5055619;28;20599;-80
2024/01/24 06:16:49;;;;;;;0.90;0.80;;;9.30;99.90;;;;;;5053976;28;20184;-79
2024/01/24 06:19:15;;;;;;;0.90;0.90;;;9.30;99.90;;;;;;5053809;28;20181;-79
2024/01/24 06:21:40;;;;;;;1.87;1.00;;;9.30;99.90;;;;;;5055167;28;20197;-79
2024/01/24 06:24:06;;;;;;;1.40;0.90;;;9.30;99.90;;;;;;5054329;28;20202;-80
2024/01/24 06:26:32;;;;;;;0.90;0.90;;;9.40;99.90;;;;;;5053480;28;20225;-79
2024/01/24 06:28:57;;;;;;;0.80;0.80;;;9.40;99.90;;;;;;5054984;28;20260;-79
2024/01/24 06:31:23;;;;;;;0.70;0.70;;;9.40;99.90;;;;;;5054151;28;20170;-79
2024/01/24 06:33:49;;;;;;;1.57;0.90;;;9.50;99.90;;;;;;5054517;28;20196;-80
2024/01/24 06:36:14;;;;;;;0.70;0.70;;;9.50;99.90;;;;;;5056650;28;20185;-81
2024/01/24 06:38:40;;;;;;;1.27;0.97;;;9.40;99.90;;;;;;5053833;28;20217;-79
2024/01/24 06:41:06;;;;;;;1.33;0.90;;;9.40;99.90;;;;;;5053643;28;20553;-78
2024/01/24 06:43:31;;;;;;;0.83;0.83;;;9.40;99.90;;;;;;5053276;28;20684;-82
2024/01/24 06:45:57;;;;;;;1.13;0.80;;;9.40;99.90;;;;;;5053219;28;20209;-80
2024/01/24 06:48:22;;;;;;;0.90;0.70;;;9.40;99.90;;;;;;5054393;28;20173;-80
2024/01/24 06:50:48;;;;;;;1.07;0.80;;;9.50;99.90;;;;;;5056471;28;20203;-80
2024/01/24 06:53:14;;;;;;;0.77;0.70;;;9.50;99.90;;;;;;5054858;28;20243;-80
2024/01/24 06:55:41;;;;;;;0.90;0.70;;;9.50;99.90;;;;;;5057088;28;20196;-79
2024/01/24 06:58:07;;;;;;;0.77;0.70;;;9.60;99.90;;;;;;5055405;28;20178;-80
2024/01/24 07:00:33;;;;;;;0.77;0.50;;;9.80;99.90;;;;;;5054278;28;20178;-81
2024/01/24 07:03:00;;;;;;;0.80;0.80;;;9.90;99.90;;;;;;5054077;28;20217;-80
2024/01/24 07:05:25;;;;;;;0.63;0.63;;;9.90;99.90;;;;;;5055678;28;20205;-79
2024/01/24 07:07:51;;;;;;;0.50;0.50;;;9.90;99.90;;;;;;5054460;28;20646;-80
2024/01/24 07:10:16;;;;;;;1.10;0.90;;;9.90;99.90;;;;;;5052723;28;20192;-79
2024/01/24 07:12:45;;;;;;;0.73;0.70;;;9.90;99.90;;;;;;5054263;28;20220;-78
2024/01/24 07:15:12;;;;;;;0.70;0.70;;;10.00;99.90;;;;;;5055735;28;20204;-78
2024/01/24 07:17:38;;;;;;;0.60;0.60;;;10.10;99.90;;;;;;5056273;28;20181;-82
2024/01/24 07:20:04;;;;;;;0.53;0.53;;;10.10;99.90;;;;;;5056925;28;20220;-80
2024/01/24 07:22:30;;;;;;;1.90;0.60;;;10.00;99.90;;;;;;5056911;28;20186;-82
2024/01/24 07:24:55;;;;;;;0.50;0.50;;;10.00;99.90;;;;;;5055775;28;20208;-80
2024/01/24 07:27:21;;;;;;;0.47;0.47;;;10.00;99.90;;;;;;5057468;28;20202;-79
2024/01/24 07:29:46;;;;;;;0.60;0.60;;;10.00;99.90;;;;;;5056000;28;20165;-80
2024/01/24 07:32:12;;;;;;;1.13;0.60;;;10.10;99.90;;;;;;5057848;28;20173;-83
2024/01/24 07:34:38;;;;;;;0.40;0.40;;;10.20;99.90;;;;;;5058013;28;20225;-80
2024/01/24 07:37:05;;;;;;;0.40;0.40;;;10.20;99.90;;;;;;5058883;28;20177;-80
2024/01/24 07:39:31;;;;;;;0.97;0.80;;;10.10;99.90;;;;;;5057207;28;20270;-80
2024/01/24 07:41:56;;;;;;;2.00;1.63;;;10.20;99.90;;;;;;5058066;28;20174;-83
2024/01/24 07:44:22;;;;;;;6.30;4.10;;;10.20;99.90;;;;;;5058638;28;20212;-80
2024/01/24 07:46:48;;;;;;;5.70;3.10;;;10.30;99.90;;;;;;5057455;28;20250;-80
2024/01/24 07:49:13;;;;;;;3.97;2.50;;;10.40;99.90;;;;;;5059066;28;20169;-84
2024/01/24 07:51:41;;;;;;;6.43;3.60;;;10.40;99.90;;;;;;5056882;28;20181;-80
2024/01/24 07:54:07;;;;;;;8.53;3.70;;;10.50;99.90;;;;;;5058318;28;20190;-81
2024/01/24 07:56:33;;;;;;;4.30;2.43;;;10.50;99.90;;;;;;5058936;28;20264;-83
2024/01/24 07:58:58;;;;;;;7.70;3.80;;;10.50;99.90;;;;;;5056328;28;20174;-80
2024/01/24 08:01:24;;;;;;;21.83;10.87;;;10.60;99.90;;;;;;5056954;28;20181;-80
2024/01/24 08:03:50;;;;;;;15.00;7.63;;;10.50;99.90;;;;;;5059192;28;20415;-80
2024/01/24 08:06:16;;;;;;;12.77;6.27;;;10.50;99.90;;;;;;5058906;28;20196;-80
2024/01/24 08:08:41;;;;;;;3.00;1.73;;;10.50;99.90;;;;;;5057361;28;20193;-80
2024/01/24 08:11:07;;;;;;;5.33;3.63;;;10.60;99.90;;;;;;5057344;28;20170;-81
2024/01/24 08:13:33;;;;;;;7.80;3.40;;;10.60;99.90;;;;;;5057488;28;20209;-79
2024/01/24 08:15:59;;;;;;;1.40;1.20;;;10.50;99.90;;;;;;5057827;28;20174;-80
2024/01/24 08:18:24;;;;;;;0.70;0.70;;;10.50;99.90;;;;;;5061486;28;20181;-80
2024/01/24 08:20:52;;;;;;;4.10;1.90;;;10.40;99.90;;;;;;5056016;28;20191;-84
2024/01/24 08:23:18;;;;;;;3.40;2.00;;;10.40;99.90;;;;;;5055319;28;20193;-80
2024/01/24 08:25:44;;;;;;;1.07;1.00;;;10.40;99.90;;;;;;5056824;28;20262;-81
2024/01/24 08:28:09;;;;;;;1.47;0.93;;;10.50;99.90;;;;;;5057727;28;20176;-80
2024/01/24 08:30:35;;;;;;;3.00;2.37;;;10.50;99.90;;;;;;5072442;28;20176;-79
2024/01/24 08:33:00;;;;;;;1.00;0.70;;;10.70;99.90;;;;;;5058134;28;20197;-80
2024/01/24 08:35:26;;;;;;;1.53;0.73;;;10.80;99.90;;;;;;5072523;28;20177;-81
2024/01/24 08:37:52;;;;;;;3.00;0.80;;;11.00;1.00;;;;;;5056717;28;20686;-80
2024/01/24 08:40:18;;;;;;;1.80;1.47;;;11.00;1.00;;;;;;5056666;28;20173;-80
2024/01/24 08:42:44;;;;;;;0.97;0.80;;;11.00;1.00;;;;;;5072255;28;20190;-80
2024/01/24 08:45:10;;;;;;;3.30;0.97;;;11.10;1.00;;;;;;5071951;28;20194;-79
2024/01/24 08:47:39;;;;;;;1.20;0.67;;;11.20;1.00;;;;;;5057048;28;20300;-80
2024/01/24 08:50:05;;;;;;;1.87;1.07;;;11.20;1.00;;;;;;5072767;28;20172;-84
2024/01/24 08:52:31;;;;;;;1.60;0.60;;;11.20;99.90;;;;;;5056517;28;20178;-82
2024/01/24 08:54:57;;;;;;;2.27;0.87;;;11.20;99.90;;;;;;5055234;28;20178;-81
2024/01/24 08:57:24;;;;;;;4.13;1.20;;;11.20;1.00;;;;;;5056266;28;20257;-80
2024/01/24 08:59:50;;;;;;;2.87;1.00;;;11.20;99.90;;;;;;5056497;28;20241;-80
2024/01/24 09:02:15;;;;;;;1.73;0.80;;;11.20;1.00;;;;;;5056667;28;20209;-81
2024/01/24 09:04:41;;;;;;;2.37;0.80;;;11.10;1.00;;;;;;5071805;28;20296;-81
2024/01/24 09:07:08;;;;;;;1.93;1.03;;;11.10;99.90;;;;;;5071932;28;20172;-80
2024/01/24 09:09:34;;;;;;;2.23;1.00;;;11.00;52.90;;;;;;5071597;28;20173;-80
2024/01/24 09:12:00;;;;;;;2.33;1.00;;;11.00;1.00;;;;;;5071775;28;20189;-80
2024/01/24 09:14:26;;;;;;;2.77;0.90;;;11.00;1.00;;;;;;5056714;28;20189;-81
2024/01/24 09:16:51;;;;;;;4.37;1.50;;;11.00;99.90;;;;;;5057307;28;20550;-82
2024/01/24 09:19:17;;;;;;;4.30;1.30;;;10.90;99.90;;;;;;5056884;28;20318;-83
2024/01/24 09:21:43;;;;;;;4.57;1.20;;;10.80;1.00;;;;;;5055894;28;20178;-80
2024/01/24 09:24:08;;;;;;;1.67;1.10;;;10.80;1.00;;;;;;5056457;28;20205;-80
2024/01/24 09:26:35;;;;;;;3.67;1.33;;;10.80;1.00;;;;;;5071826;28;20210;-81
2024/01/24 09:29:01;;;;;;;4.13;1.10;;;10.80;1.00;;;;;;5071769;28;20231;-81
2024/01/24 09:31:26;;;;;;;2.33;0.90;;;10.70;1.00;;;;;;5056000;28;20178;-81
2024/01/24 09:33:52;;;;;;;4.63;1.70;;;10.90;1.00;;;;;;5056322;28;20566;-81
2024/01/24 09:36:18;;;;;;;3.20;1.13;;;11.00;1.00;;;;;;5069848;28;20555;-80
2024/01/24 09:38:44;;;;;;;3.90;1.50;;;11.10;1.00;;;;;;5055601;28;20177;-81
2024/01/24 09:41:18;;;;;;;8.77;1.50;;;11.10;99.90;;;;;;5070659;28;20178;-80
2024/01/24 09:43:45;;;;;;;4.27;1.30;;;11.00;99.90;;;;;;5070663;28;20260;-80
2024/01/24 09:46:15;;;;;;;5.53;1.33;;;11.10;1.00;;;;;;5055186;28;20212;-80
2024/01/24 09:48:43;;;;;;;5.63;1.80;;;11.10;99.90;;;;;;5055375;28;20205;-80
2024/01/24 09:51:10;;;;;;;7.17;2.03;;;11.10;1.00;;;;;;5070231;28;20209;-80
2024/01/24 09:53:38;;;;;;;8.30;1.83;;;11.10;1.00;;;;;;5055213;28;20199;-80
2024/01/24 09:56:05;;;;;;;9.83;1.63;;;11.00;1.00;;;;;;5055223;28;20181;-80
2024/01/24 09:58:30;;;;;;;5.57;2.20;;;11.00;99.90;;;;;;5070502;28;20181;-82
2024/01/24 10:00:57;;;;;;;7.03;1.87;;;11.00;1.00;;;;;;5054397;28;20174;-80
2024/01/24 10:03:24;;;;;;;8.17;1.80;;;11.00;99.90;;;;;;5055554;28;20209;-80
2024/01/24 10:05:52;;;;;;;6.83;1.67;;;11.00;1.00;;;;;;5055202;28;20212;-82
2024/01/24 10:08:18;;;;;;;7.17;1.70;;;11.00;1.00;;;;;;5055322;28;20197;-80
2024/01/24 10:10:45;;;;;;;7.87;2.13;;;11.00;1.00;;;;;;5054876;28;20181;-81
2024/01/24 10:13:11;;;;;;;4.70;1.47;;;11.00;99.90;;;;;;5054640;28;20717;-83
2024/01/24 10:15:37;;;;;;;4.23;1.67;;;11.00;1.00;;;;;;5054694;28;20186;-80
2024/01/24 10:18:03;;;;;;;8.87;1.80;;;11.10;1.00;;;;;;5054509;28;20182;-81
2024/01/24 10:20:29;;;;;;;6.57;1.63;;;11.10;1.00;;;;;;5069958;28;20177;-81
2024/01/24 10:22:55;;;;;;;7.37;1.63;;;11.10;1.00;;;;;;5054520;28;20612;-80
2024/01/24 10:25:21;;;;;;;4.87;2.00;;;11.30;1.00;;;;;;5054874;28;20252;-80
2024/01/24 10:27:47;;;;;;;7.70;1.83;;;11.40;99.90;;;;;;5070064;28;20190;-80
2024/01/24 10:30:15;;;;;;;10.50;2.50;;;11.50;1.00;;;;;;5054284;28;20174;-80
2024/01/24 10:32:46;;;;;;;7.70;1.93;;;11.50;99.90;;;;;;5054922;28;20178;-80
2024/01/24 10:35:12;;;;;;;6.10;1.77;;;11.40;1.00;;;;;;5055064;28;20257;-81
2024/01/24 10:37:41;;;;;;;5.00;1.80;;;11.50;1.00;;;;;;5055302;28;20197;-80
2024/01/24 10:40:11;;;;;;;8.57;1.80;;;11.50;99.90;;;;;;5055841;28;20180;-80
2024/01/24 10:42:40;;;;;;;6.70;1.47;;;11.40;1.00;;;;;;5055709;28;20184;-80
2024/01/24 10:45:07;;;;;;;7.03;1.70;;;11.40;1.00;;;;;;5070069;28;20216;-80
2024/01/24 10:47:34;;;;;;;7.03;1.97;;;11.50;1.00;;;;;;5073029;28;20323;-80
2024/01/24 10:50:05;;;;;;;6.80;1.70;;;11.50;1.00;;;;;;5074484;28;20180;-83
2024/01/24 10:52:32;;;;;;;8.87;2.13;;;11.60;1.00;;;;;;5059437;28;20173;-80
2024/01/24 10:55:05;;;;;;;10.00;2.00;;;11.50;1.00;;;;;;5074675;28;20185;-81
2024/01/24 10:57:33;;;;;;;4.40;1.70;;;11.50;1.00;;;;;;5075193;28;20182;-80
2024/01/24 11:00:10;;;;;;;9.40;2.23;;;11.60;99.90;;;;;;5074300;28;20208;-80
2024/01/24 11:02:41;;;;;;;5.60;1.93;;;11.60;99.90;;;;;;5058220;28;20200;-82
2024/01/24 11:05:14;;;;;;;10.40;2.20;;;11.70;99.90;;;;;;5059257;28;20214;-82
2024/01/24 11:07:54;;;;;;;7.93;1.90;;;11.60;22.30;;;;;;5073803;28;20176;-83
2024/01/24 11:10:35;;;;;;;4.50;1.57;;;11.50;1.00;;;;;;5072895;28;20174;-81
2024/01/24 11:13:05;;;;;;;7.43;2.17;;;11.50;1.00;;;;;;5057688;28;20288;-80
2024/01/24 11:15:35;;;;;;;7.93;2.43;;;11.50;1.00;;;;;;5072059;28;20177;-83
2024/01/24 11:18:22;;;;;;;8.53;2.10;;;11.40;71.00;;;;;;5071692;28;20205;-80
2024/01/24 11:20:53;;;;;;;8.67;2.13;;;11.40;72.40;;;;;;5055174;28;20201;-79
2024/01/24 11:23:39;;;;;;;9.00;2.50;;;11.30;1.00;;;;;;5055809;28;20228;-81
2024/01/24 11:26:06;;;;;;;9.33;1.97;;;11.40;1.00;;;;;;5055282;28;20266;-77
2024/01/24 11:28:32;;;;;;;8.10;1.83;;;11.30;1.00;;;;;;5055932;28;20188;-81
2024/01/24 11:30:58;;;;;;;7.83;1.70;;;11.30;1.00;;;;;;5072549;28;20173;-80
2024/01/24 11:33:24;;;;;;;9.77;2.23;;;11.30;1.00;;;;;;5058013;28;20253;-80
2024/01/24 11:35:51;;;;;;;7.23;1.70;;;11.30;1.00;;;;;;5057892;28;20157;-81
2024/01/24 11:38:16;;;;;;;6.07;1.57;;;11.20;1.00;;;;;;5072779;28;20177;-80
2024/01/24 11:40:43;;;;;;;14.63;2.40;;;11.20;1.00;;;;;;5055759;28;20170;-80
2024/01/24 11:43:26;;;;;;;6.37;2.07;;;11.20;99.90;;;;;;5073051;28;20190;-79
2024/01/24 11:45:56;;;;;;;5.63;1.67;;;11.00;55.60;;;;;;5055930;28;20323;-79
2024/01/24 11:48:22;;;;;;;8.27;1.80;;;11.00;92.30;;;;;;5072781;28;20219;-79
2024/01/24 11:51:01;;;;;;;10.40;2.30;;;11.00;99.90;;;;;;5056734;28;20549;-80
2024/01/24 11:53:27;;;;;;;11.30;2.57;;;11.00;99.90;;;;;;5057443;28;20186;-79
2024/01/24 11:56:02;;;;;;;8.20;1.90;;;11.00;99.90;;;;;;5073498;28;20311;-79
2024/01/24 11:58:28;;;;;;;9.83;2.60;;;11.00;99.90;;;;;;5071220;28;20575;-79
2024/01/24 12:01:01;;;;;;;6.77;1.87;;;11.10;99.90;;;;;;5071468;28;20185;-79
2024/01/24 12:03:27;;;;;;;8.03;2.70;;;11.30;1.00;;;;;;5055743;28;20708;-78
2024/01/24 12:05:53;;;;;;;8.80;3.23;;;11.30;1.00;;;;;;5072158;28;20193;-82
2024/01/24 12:08:19;;;;;;;11.30;1.97;;;11.30;1.00;;;;;;5055774;28;20173;-82
2024/01/24 12:10:45;;;;;;;10.57;2.40;;;11.30;1.00;;;;;;5055806;28;20170;-82
2024/01/24 12:13:12;;;;;;;7.30;2.13;;;11.30;1.00;;;;;;5071280;28;20293;-82
2024/01/24 12:15:38;;;;;;;6.67;1.90;;;11.30;99.90;;;;;;5056455;28;20169;-82
2024/01/24 12:18:15;;;;;;;6.07;1.73;;;11.30;99.90;;;;;;5071235;28;20240;-82
2024/01/24 12:20:46;;;;;;;6.83;1.87;;;11.20;99.90;;;;;;5055964;28;20250;-84
2024/01/24 12:23:13;;;;;;;8.87;2.10;;;;;;;;;;5054513;28;20198;-82
2024/01/24 12:25:39;;;;;;;3.53;1.50;;;11.10;99.90;;;;;;5056072;28;20205;-83
2024/01/24 12:28:06;;;;;;;10.30;2.17;;;11.10;99.90;;;;;;5056094;28;20170;-82
2024/01/24 12:30:34;;;;;;;8.50;1.93;;;11.10;99.90;;;;;;5054767;28;20182;-83
2024/01/24 12:33:01;;;;;;;3.50;1.80;;;11.10;99.90;;;;;;5071390;28;20193;-81
2024/01/24 12:35:28;;;;;;;8.07;1.70;;;11.10;99.90;;;;;;5055564;28;20287;-83
2024/01/24 12:38:02;;;;;;;6.47;1.63;;;11.00;99.90;;;;;;5055155;28;20181;-81
2024/01/24 12:40:29;;;;;;;9.43;2.77;;;11.00;99.90;;;;;;5072675;28;20174;-82
2024/01/24 12:42:55;;;;;;;10.70;2.40;;;11.00;99.90;;;;;;5074024;28;20209;-78
2024/01/24 12:45:27;;;;;;;7.73;2.23;;;11.00;99.90;;;;;;5072526;28;20632;-83
2024/01/24 12:47:54;;;;;;;6.97;1.73;;;10.90;99.90;;;;;;5057036;28;20174;-82
2024/01/24 12:50:21;;;;;;;8.90;2.43;;;10.90;99.90;;;;;;5056193;28;20315;-81
2024/01/24 12:52:47;;;;;;;14.93;2.40;;;10.90;1.00;;;;;;5071481;28;20208;-81